LJLJ/LJU METAR and TAF weather

Enter ICAO airport designator
Station Type Date Time Source
LJLJ METAR 2019/12/12 17:00 UTC NOAA

LJLJ 121700Z 35003KT 8000 -SN FEW013 BKN030 M01/M03 Q1004 NOSIG


Station Type Date Time Source
LJLJ Decoded METAR 2019/12/12 17:00 UTC NOAA

Ljubljana / Brnik, Slovenia (LJLJ) 46-13N 014-29E 362M
Dec 12, 2019 - 12:00 PM EST / 2019.12.12 1700 UTC
Wind: from the N (350 degrees) at 3 MPH (3 KT):0
Visibility: 4 mile(s):0
Sky conditions: mostly cloudy
Weather: light snow
Temperature: 30 F (-1 C)
Dew Point: 26 F (-3 C)
Relative Humidity: 86%
Pressure (altimeter): 29.65 in. Hg (1004 hPa)
ob: LJLJ 121700Z 35003KT 8000 -SN FEW013 BKN030 M01/M03 Q1004 NOSIG
cycle: 17

Station Type Date Time Source
LJLJ TAF 2019/12/12 18:03 UTC NOAA

TAF TAF LJLJ 121700Z 1218/1318 30003KT 9999 SCT027 OVC045
TEMPO 1218/1311 6000 -SN FEW010 BKN023 OVC035
TEMPO 1218/1303 3500 SN OVC017
BECMG 1311/1314 3500 RASN BKN015 OVC030
BECMG 1314/1316 2000 SN OVC012 PROB40 1315/1318 0800 SN VV003

Example: see airport list